Port Clements, Canada
Current Conditions -  °F | °C
As of 6:00 PM on Wednesday 22 Oct 2014 (Local Time) from CZMT Reporting Station
Broken Clouds Broken Clouds  
Wind Chill:   Ceiling: 21000
Heat Index:   Visibility: 15mi
Dew Point:   Wind: 7mph
Humidity: 93%   Direction: 140°SE
Pressure: 29.28"   Gusts: NA
Location:  53.68°N, 132.17°W
Report Text: CZMT 230100Z 14006KT 010V160 15SM FEW006 SCT012 SCT095 BKN210 09/08 A2928 RMK CF2CU1AC1CI1 LAST OBS/NEXT 231400 UTC SLP917
Loading
Personal Weather Stations






























Interactive Weather Map
Tropical Storm Tracking
New forecast layout! Learn more

10-Day Weather Forecast

Advertisements
Track Severe Weather on mobile